Time;durP1;ratioP1;P1;durP2;ratioP2;P2;SDS_P1;SDS_P2;PMS_P1;PMS_P2;Temp;Humidity;BMP_temperature;BMP_pressure;BME280_temperature;BME280_humidity;BME280_pressure;Samples;Min_cycle;Max_cycle;Signal;HPM_P1;HPM_P2
2021/01/10 00:01:04;;;;;;;65.12;31.93;;;;;;;-1.35;100.00;99483.30;1741669;82;21234;-72
2021/01/10 00:03:36;;;;;;;69.42;35.03;;;;;;;-1.36;100.00;99497.95;1741715;82;21558;-72
2021/01/10 00:06:06;;;;;;;58.40;25.97;;;;;;;-1.37;100.00;99494.50;1741460;81;21068;-72
2021/01/10 00:08:34;;;;;;;68.00;37.67;;;;;;;-1.36;100.00;99492.17;1740708;82;21151;-73
2021/01/10 00:11:03;;;;;;;62.13;29.02;;;;;;;-1.37;100.00;99498.45;1739857;82;21250;-72
2021/01/10 00:14:13;;;;;;;63.75;28.85;;;;;;;-1.36;100.00;99505.34;1741013;82;21171;-72
2021/01/10 00:16:42;;;;;;;53.55;26.62;;;;;;;-1.36;100.00;99507.98;1740968;82;21181;-72
2021/01/10 00:19:11;;;;;;;73.72;35.33;;;;;;;-1.36;100.00;99504.03;1741384;82;21151;-72
2021/01/10 00:21:39;;;;;;;63.98;28.95;;;;;;;-1.34;100.00;99509.12;1741789;81;21147;-71
2021/01/10 00:24:08;;;;;;;69.92;34.95;;;;;;;-1.33;100.00;99508.12;1741756;82;21208;-72
2021/01/10 00:26:36;;;;;;;;;;;;;;;-1.33;100.00;99512.06;1744310;82;21111;-72
2021/01/10 00:29:08;;;;;;;;;;;;;;;-1.33;100.00;99514.20;1743869;82;20150;-72
2021/01/10 00:31:37;;;;;;;65.28;34.73;;;;;;;-1.34;100.00;99503.36;1725214;82;20272;-72
2021/01/10 00:34:05;;;;;;;57.13;27.00;;;;;;;-1.33;100.00;99514.20;1700639;83;21121;-73
2021/01/10 00:36:35;;;;;;;46.33;21.68;;;;;;;-1.33;100.00;99513.39;1699220;83;21408;-72
2021/01/10 00:39:05;;;;;;;53.28;24.37;;;;;;;-1.32;100.00;99513.72;1698897;83;21572;-71
2021/01/10 00:41:41;;;;;;;54.08;24.50;;;;;;;-1.33;100.00;99515.52;1699043;83;20987;-72
2021/01/10 00:44:10;;;;;;;62.03;26.27;;;;;;;-1.33;100.00;99519.97;1699066;84;21185;-71
2021/01/10 00:46:39;;;;;;;65.57;33.20;;;;;;;-1.35;100.00;99516.22;1699086;83;21165;-72
2021/01/10 00:49:07;;;;;;;61.70;30.37;;;;;;;-1.34;100.00;99517.84;1699255;83;22082;-71
2021/01/10 00:51:36;;;;;;;63.90;26.97;;;;;;;-1.35;100.00;99516.69;1699126;84;21585;-72
2021/01/10 00:54:04;;;;;;;47.33;22.85;;;;;;;-1.36;100.00;99517.19;1698650;83;21146;-72
2021/01/10 00:56:33;;;;;;;;;;;;;;;-1.35;100.00;99507.00;1701133;84;21019;-72
2021/01/10 00:59:02;;;;;;;62.95;28.77;;;;;;;-1.34;100.00;99514.39;1698957;83;20538;-71
2021/01/10 01:01:30;;;;;;;70.03;35.23;;;;;;;-1.36;100.00;99509.30;1698897;84;21399;-71
2021/01/10 01:03:59;;;;;;;59.50;31.15;;;;;;;-1.38;100.00;99513.09;1699188;83;21189;-72
2021/01/10 01:06:28;;;;;;;51.58;22.50;;;;;;;-1.39;100.00;99511.48;1698971;83;21192;-71
2021/01/10 01:08:56;;;;;;;56.85;28.87;;;;;;;-1.38;100.00;99510.47;1699094;83;21125;-72
2021/01/10 01:11:33;;;;;;;57.17;28.67;;;;;;;-1.37;100.00;99508.14;1677223;84;21053;-71
2021/01/10 01:14:04;;;;;;;51.80;27.65;;;;;;;-1.38;100.00;99514.42;1698520;84;21951;-71
2021/01/10 01:16:32;;;;;;;60.38;29.70;;;;;;;-1.37;100.00;99516.89;1697706;83;21027;-72
2021/01/10 01:19:03;;;;;;;66.70;34.10;;;;;;;-1.37;100.00;99514.25;1675735;84;21712;-72
2021/01/10 01:21:32;;;;;;;70.85;34.23;;;;;;;-1.35;100.00;99510.11;1697695;83;21336;-72
2021/01/10 01:24:01;;;;;;;63.20;32.58;;;;;;;-1.34;100.00;99508.63;1697708;84;21157;-71
2021/01/10 01:26:29;;;;;;;48.90;27.80;;;;;;;-1.34;100.00;99510.44;1698063;83;22259;-71
2021/01/10 01:28:58;;;;;;;56.37;27.55;;;;;;;-1.35;100.00;99502.20;1698605;83;21189;-71
2021/01/10 01:31:29;;;;;;;55.43;25.12;;;;;;;-1.35;100.00;99508.31;1718097;82;21040;-72
2021/01/10 01:33:57;;;;;;;67.55;34.98;;;;;;;-1.35;100.00;99503.05;1740481;81;21128;-71
2021/01/10 01:36:27;;;;;;;54.55;25.97;;;;;;;-1.33;100.00;99502.85;1741949;81;21043;-73
2021/01/10 01:38:57;;;;;;;69.17;32.08;;;;;;;-1.34;100.00;99504.67;1741574;81;21222;-71
2021/01/10 01:41:25;;;;;;;64.65;33.13;;;;;;;-1.35;100.00;99509.63;1741679;81;20996;-71
2021/01/10 01:43:54;;;;;;;59.05;27.30;;;;;;;-1.34;100.00;99511.26;1741588;82;21052;-72
2021/01/10 01:46:34;;;;;;;53.60;24.95;;;;;;;-1.34;100.00;99507.30;1741675;81;21178;-71
2021/01/10 01:49:07;;;;;;;62.62;31.80;;;;;;;-1.35;100.00;99507.47;1741840;81;21046;-71
2021/01/10 01:51:38;;;;;;;67.15;33.30;;;;;;;-1.36;100.00;99510.61;1741282;81;21194;-71
2021/01/10 01:54:07;;;;;;;63.95;31.97;;;;;;;-1.36;100.00;99516.38;1741607;82;20924;-71
2021/01/10 01:56:35;;;;;;;;;;;;;;;-1.37;100.00;99517.36;1744074;81;21060;-70
2021/01/10 01:59:15;;;;;;;62.27;27.73;;;;;;;-1.38;100.00;99522.31;1722785;83;20276;-71
2021/01/10 02:01:44;;;;;;;52.75;25.05;;;;;;;-1.37;100.00;99510.30;1723247;83;21184;-71
2021/01/10 02:08:11;;;;;;;55.58;27.13;;;;;;;-1.37;100.00;99523.94;1724051;80;21011;-72
2021/01/10 02:10:41;;;;;;;69.15;31.70;;;;;;;-1.39;100.00;99518.06;1723602;83;21160;-71
2021/01/10 02:13:15;;;;;;;61.77;29.85;;;;;;;-1.39;100.00;99523.33;1710874;83;21084;-72
2021/01/10 02:15:43;;;;;;;62.43;29.95;;;;;;;-1.40;100.00;99521.67;1761078;81;21038;-72
2021/01/10 02:18:12;;;;;;;57.20;25.80;;;;;;;-1.42;100.00;99524.97;1771041;81;21429;-71
2021/01/10 02:20:41;;;;;;;58.25;27.30;;;;;;;-1.42;100.00;99522.34;1770717;81;20951;-71
2021/01/10 02:23:21;;;;;;;58.78;29.07;;;;;;;-1.41;100.00;99527.44;1770836;81;21579;-70
2021/01/10 02:25:50;;;;;;;57.62;28.23;;;;;;;-1.42;100.00;99522.34;1770792;80;21165;-72
2021/01/10 02:28:21;;;;;;;67.25;34.45;;;;;;;-1.40;100.00;99522.98;1770814;80;27291;-73
2021/01/10 02:30:51;;;;;;;65.35;29.92;;;;;;;-1.39;100.00;99524.14;1769959;80;21412;-71
2021/01/10 02:33:41;;;;;;;60.52;32.10;;;;;;;-1.40;100.00;99520.35;1765767;80;21133;-73
2021/01/10 02:36:25;;;;;;;64.05;33.10;;;;;;;-1.42;100.00;99520.55;1765469;81;21023;-72
2021/01/10 02:39:13;;;;;;;55.92;27.80;;;;;;;-1.43;100.00;99521.53;1694141;83;21173;-72
2021/01/10 02:42:09;;;;;;;55.52;28.17;;;;;;;-1.36;100.00;99518.52;1851797;77;28682;-71
2021/01/10 02:44:45;;;;;;;67.45;33.15;;;;;;;-1.38;100.00;99517.05;1818921;78;20987;-72
2021/01/10 02:47:13;;;;;;;68.45;32.85;;;;;;;-1.37;100.00;99525.26;1817778;78;21155;-72
2021/01/10 02:49:43;;;;;;;45.88;23.75;;;;;;;-1.38;100.00;99523.63;1748068;81;21070;-71
2021/01/10 02:52:12;;;;;;;60.63;31.75;;;;;;;-1.38;100.00;99522.31;1818057;78;21279;-72
2021/01/10 02:54:41;;;;;;;59.70;30.85;;;;;;;-1.39;100.00;99517.55;1748359;81;21216;-72
2021/01/10 02:57:15;;;;;;;56.90;28.60;;;;;;;-1.37;100.00;99522.63;1819449;78;20920;-72
2021/01/10 02:59:46;;;;;;;65.00;33.60;;;;;;;-1.39;100.00;99516.23;1780470;80;21372;-71
2021/01/10 03:02:15;;;;;;;62.23;33.05;;;;;;;-1.39;100.00;99523.33;1749671;81;21028;-72
2021/01/10 03:04:45;;;;;;;65.40;33.08;;;;;;;-1.40;100.00;99515.90;1819418;78;21002;-72
2021/01/10 03:07:15;;;;;;;59.35;32.78;;;;;;;-1.40;100.00;99519.84;1749534;81;21015;-72
2021/01/10 03:09:47;;;;;;;54.35;27.73;;;;;;;-1.39;100.00;99522.01;1787853;78;21125;-72
2021/01/10 03:12:24;;;;;;;65.32;29.95;;;;;;;-1.41;100.00;99528.75;1819592;78;21417;-72
2021/01/10 03:14:50;;;;;;;59.08;29.12;;;;;;;-1.42;100.00;99527.13;1748882;81;21066;-72
2021/01/10 03:17:26;;;;;;;56.23;27.45;;;;;;;-1.40;100.00;99527.75;1819752;78;25938;-72
2021/01/10 03:20:07;;;;;;;65.90;34.15;;;;;;;-1.34;100.00;99529.69;1874083;75;28577;-72
2021/01/10 03:22:37;;;;;;;55.67;30.00;;;;;;;-1.37;100.00;99529.20;1819102;78;21141;-71
2021/01/10 03:25:07;;;;;;;47.35;21.50;;;;;;;-1.37;100.00;99525.26;1819599;78;21183;-71
2021/01/10 03:27:36;;;;;;;55.90;28.35;;;;;;;-1.37;100.00;99523.47;1788342;77;20999;-72
2021/01/10 03:30:06;;;;;;;57.65;31.45;;;;;;;-1.36;100.00;99530.86;1762814;78;21042;-71
2021/01/10 03:32:35;;;;;;;58.33;31.93;;;;;;;-1.37;100.00;99534.00;1819422;78;20995;-71
2021/01/10 03:35:08;;;;;;;58.40;26.73;;;;;;;-1.38;100.00;99532.84;1819600;78;21687;-72
2021/01/10 03:37:38;;;;;;;55.75;29.95;;;;;;;-1.38;100.00;99523.63;1819502;78;21414;-71
2021/01/10 03:40:07;;;;;;;49.75;25.80;;;;;;;-1.39;100.00;99527.27;1819259;78;21148;-71
2021/01/10 03:42:36;;;;;;;51.45;26.60;;;;;;;-1.41;100.00;99525.31;1819409;78;20988;-71
2021/01/10 03:45:07;;;;;;;53.38;27.35;;;;;;;-1.42;100.00;99524.97;1819086;77;21133;-71
2021/01/10 03:47:36;;;;;;;56.18;27.82;;;;;;;-1.44;100.00;99526.98;1819550;78;21126;-72
2021/01/10 03:50:06;;;;;;;69.17;32.50;;;;;;;-1.47;100.00;99526.00;1819509;77;21233;-71
2021/01/10 03:52:34;;;;;;;38.17;22.10;;;;;;;-1.51;100.00;99528.99;1818715;78;21066;-71
2021/01/10 03:55:06;;;;;;;50.88;27.82;;;;;;;-1.54;100.00;99528.03;1818982;78;21184;-71
2021/01/10 03:57:38;;;;;;;55.58;24.90;;;;;;;-1.55;100.00;99527.70;1819333;78;20987;-71
2021/01/10 04:00:10;;;;;;;60.45;28.55;;;;;;;-1.57;100.00;99534.13;1819103;78;21094;-71
2021/01/10 04:02:40;;;;;;;56.53;28.23;;;;;;;-1.59;100.00;99536.96;1819490;78;21351;-72
2021/01/10 04:05:10;;;;;;;47.98;25.57;;;;;;;-1.62;100.00;99533.34;1819498;78;20920;-71
2021/01/10 04:07:39;;;;;;;55.35;30.05;;;;;;;-1.62;100.00;99533.84;1819420;78;20987;-72
2021/01/10 04:10:08;;;;;;;;;;;;;;;-1.62;100.00;99534.66;1822061;78;21125;-72
2021/01/10 04:12:36;;;;;;;53.85;28.45;;;;;;;-1.63;100.00;99536.98;1819240;78;20152;-72
2021/01/10 04:15:06;;;;;;;48.45;23.38;;;;;;;-1.63;100.00;99538.30;1819565;78;21465;-72
2021/01/10 04:17:34;;;;;;;56.02;29.50;;;;;;;-1.64;100.00;99537.14;1787421;78;21014;-72
2021/01/10 04:20:05;;;;;;;60.28;29.02;;;;;;;-1.65;100.00;99535.52;1820730;78;21712;-72
2021/01/10 04:22:33;;;;;;;59.45;28.62;;;;;;;-1.66;100.00;99540.47;1822142;78;21113;-71
2021/01/10 04:25:06;;;;;;;55.55;29.90;;;;;;;-1.67;100.00;99540.95;1821835;78;21137;-72
2021/01/10 04:27:34;;;;;;;55.52;29.70;;;;;;;-1.69;100.00;99541.64;1821905;78;21353;-71
2021/01/10 04:30:06;;;;;;;57.80;23.67;;;;;;;-1.68;100.00;99540.64;1822679;78;20916;-72
2021/01/10 04:32:36;;;;;;;52.98;26.37;;;;;;;-1.69;100.00;99536.84;1822239;78;21161;-71
2021/01/10 04:35:24;;;;;;;55.92;29.57;;;;;;;-1.69;100.00;99544.75;1813407;78;21632;-72
2021/01/10 04:37:53;;;;;;;61.05;31.82;;;;;;;-1.70;100.00;99545.25;1822541;78;20963;-72
2021/01/10 04:40:21;;;;;;;74.50;36.65;;;;;;;-1.69;100.00;99551.33;1822543;78;21419;-72
2021/01/10 04:42:50;;;;;;;77.42;31.97;;;;;;;-1.67;100.00;99545.39;1822139;78;21027;-72
2021/01/10 04:45:18;;;;;;;91.28;39.85;;;;;;;-1.66;100.00;99549.18;1822302;78;21118;-71
2021/01/10 04:47:47;;;;;;;75.42;34.55;;;;;;;-1.64;100.00;99553.78;1794939;78;21106;-72
2021/01/10 04:50:16;;;;;;;88.75;37.10;;;;;;;-1.63;100.00;99548.83;1822650;78;20991;-72
2021/01/10 04:52:45;;;;;;;61.48;28.32;;;;;;;-1.59;100.00;99554.57;1821883;78;21369;-71
2021/01/10 04:59:23;;;;;;;57.53;29.10;;;;;;;-1.56;100.00;99552.39;1821634;78;21450;-72
2021/01/10 05:01:53;;;;;;;58.02;29.30;;;;;;;-1.54;100.00;99554.87;1822365;78;21473;-73
2021/01/10 05:04:22;;;;;;;57.75;30.60;;;;;;;-1.53;100.00;99565.20;1822170;78;21086;-72
2021/01/10 05:06:51;;;;;;;56.10;27.52;;;;;;;-1.51;100.00;99567.67;1794876;78;21655;-74
2021/01/10 05:09:19;;;;;;;44.93;24.65;;;;;;;-1.49;100.00;99566.16;1822348;78;25154;-73
2021/01/10 05:11:48;;;;;;;50.25;27.77;;;;;;;-1.49;100.00;99566.16;1822183;78;21026;-72
2021/01/10 05:14:18;;;;;;;45.65;25.62;;;;;;;-1.47;100.00;99567.66;1822396;78;21577;-73
2021/01/10 05:16:46;;;;;;;41.98;22.73;;;;;;;-1.46;100.00;99572.41;1822310;78;21557;-72
2021/01/10 05:19:20;;;;;;;53.02;28.83;;;;;;;-1.46;100.00;99576.36;1792607;78;21368;-72
2021/01/10 05:21:49;;;;;;;51.33;26.48;;;;;;;-1.45;100.00;99574.85;1818540;77;20955;-73
2021/01/10 05:24:18;;;;;;;55.83;27.48;;;;;;;-1.44;100.00;99579.64;1818949;78;25178;-73
2021/01/10 05:26:47;;;;;;;56.48;29.50;;;;;;;-1.44;100.00;99579.64;1818753;78;21182;-73
2021/01/10 05:29:15;;;;;;;51.08;28.92;;;;;;;-1.44;100.00;99588.36;1819026;78;21003;-72
2021/01/10 05:31:45;;;;;;;39.98;22.30;;;;;;;-1.43;100.00;99583.91;1818822;78;21636;-73
2021/01/10 05:34:15;;;;;;;46.63;23.83;;;;;;;-1.44;100.00;99586.23;1818832;78;21658;-72
2021/01/10 05:36:44;;;;;;;55.67;28.23;;;;;;;-1.44;100.00;99596.25;1818698;78;21835;-72
2021/01/10 05:39:30;;;;;;;40.65;18.92;;;;;;;-1.43;100.00;99599.70;1818812;78;20924;-72
2021/01/10 05:42:04;;;;;;;51.60;25.23;;;;;;;-1.44;100.00;99600.20;1818862;78;21007;-73
2021/01/10 05:44:44;;;;;;;56.63;29.05;;;;;;;-1.43;100.00;99604.46;1818995;77;22106;-72
2021/01/10 05:47:17;;;;;;;56.58;28.75;;;;;;;-1.43;100.00;99604.46;1818565;78;21046;-73
2021/01/10 05:49:55;;;;;;;55.50;29.05;;;;;;;-1.43;100.00;99603.14;1818961;78;20951;-72
2021/01/10 05:52:23;;;;;;;55.48;27.07;;;;;;;-1.44;100.00;99602.84;1818755;78;20925;-71
2021/01/10 05:54:53;;;;;;;;;;;;;;;-1.43;100.00;99606.28;1821536;78;21593;-72
2021/01/10 05:57:28;;;;;;;53.92;27.90;;;;;;;-1.43;100.00;99611.05;1818830;78;21328;-72
2021/01/10 05:59:57;;;;;;;53.48;27.62;;;;;;;-1.43;100.00;99614.99;1818643;78;21592;-73
2021/01/10 06:02:33;;;;;;;64.30;35.23;;;;;;;-1.43;100.00;99618.13;1818936;78;21035;-73
2021/01/10 06:05:14;;;;;;;146.13;70.57;;;;;;;-1.43;100.00;99615.50;1818921;78;21031;-72
2021/01/10 06:07:42;;;;;;;118.10;54.88;;;;;;;-1.43;100.00;99624.21;1818472;78;21041;-72
2021/01/10 06:10:12;;;;;;;274.88;136.92;;;;;;;-1.43;100.00;99626.03;1818895;78;21870;-72
2021/01/10 06:12:55;;;;;;;160.05;102.38;;;;;;;-1.41;100.00;99628.00;1818440;78;21058;-72
2021/01/10 06:15:24;;;;;;;61.98;27.70;;;;;;;-1.41;100.00;99626.68;1812866;78;20967;-72
2021/01/10 06:17:53;;;;;;;58.90;30.70;;;;;;;-1.43;100.00;99627.34;1818735;78;20872;-73
2021/01/10 06:20:23;;;;;;;56.88;31.35;;;;;;;-1.42;100.00;99628.97;1818524;78;20999;-73
2021/01/10 06:22:54;;;;;;;45.10;24.30;;;;;;;-1.42;100.00;99636.87;1818458;78;21813;-72
2021/01/10 06:25:31;;;;;;;63.60;33.33;;;;;;;-1.42;100.00;99650.03;1818902;77;21070;-72
2021/01/10 06:28:03;;;;;;;64.90;32.58;;;;;;;-1.41;100.00;99647.23;1787582;78;20889;-72
2021/01/10 06:30:33;;;;;;;59.13;30.52;;;;;;;-1.40;100.00;99650.69;1818519;78;20896;-72
2021/01/10 06:33:13;;;;;;;65.12;35.90;;;;;;;-1.41;100.00;99650.37;1818617;78;20904;-72
2021/01/10 06:35:41;;;;;;;89.62;50.05;;;;;;;-1.42;100.00;99655.30;1818764;78;21301;-72
2021/01/10 06:38:11;;;;;;;65.37;37.15;;;;;;;-1.42;100.00;99661.88;1818795;78;20999;-72
2021/01/10 06:40:43;;;;;;;58.05;28.40;;;;;;;-1.41;100.00;99664.86;1818831;78;20912;-73
2021/01/10 06:43:12;;;;;;;66.62;31.62;;;;;;;-1.43;100.00;99669.47;1818851;77;20951;-72
2021/01/10 06:45:40;;;;;;;62.25;31.48;;;;;;;-1.44;100.00;99666.02;1762317;78;20987;-72
2021/01/10 06:48:10;;;;;;;51.10;24.47;;;;;;;-1.45;100.00;99670.14;1818563;78;21362;-72
2021/01/10 06:50:38;;;;;;;63.23;28.27;;;;;;;-1.46;100.00;99670.64;1818623;78;21003;-72
2021/01/10 06:53:11;;;;;;;70.50;34.45;;;;;;;-1.46;100.00;99675.91;1787438;78;21126;-72
2021/01/10 06:55:40;;;;;;;73.97;36.40;;;;;;;-1.45;100.00;99678.03;1818351;78;20999;-71
2021/01/10 06:58:09;;;;;;;58.33;29.67;;;;;;;-1.45;100.00;99683.30;1818271;78;21514;-72
2021/01/10 07:01:47;;;;;;;54.23;25.32;;;;;;;-1.48;100.00;99675.25;1817948;77;21250;-72
2021/01/10 07:04:16;;;;;;;69.95;34.78;;;;;;;-1.50;100.00;99671.97;1818199;78;21068;-72
2021/01/10 07:06:45;;;;;;;;;;;;;;;-1.50;100.00;99675.91;1821557;78;20987;-72
2021/01/10 07:09:17;;;;;;;64.17;28.92;;;;;;;-1.50;100.00;99675.91;1818624;78;20188;-72
2021/01/10 07:11:45;;;;;;;80.57;45.00;;;;;;;-1.52;100.00;99673.48;1818702;78;21031;-73
2021/01/10 07:14:22;;;;;;;70.10;35.75;;;;;;;-1.50;100.00;99677.23;1817097;78;21701;-73
2021/01/10 07:16:50;;;;;;;51.85;27.37;;;;;;;-1.52;100.00;99680.05;1818267;78;21019;-72
2021/01/10 07:22:53;;;;;;;59.75;26.55;;;;;;;-1.51;100.00;99678.23;1815093;77;21198;-73
2021/01/10 07:29:52;;;;;;;62.35;31.17;;;;;;;-1.53;100.00;99686.30;1818580;78;21469;-72
2021/01/10 07:32:20;;;;;;;81.85;38.80;;;;;;;-1.52;100.00;99693.69;1818541;78;21011;-72
2021/01/10 07:35:01;;;;;;;60.17;28.87;;;;;;;-1.51;100.00;99690.89;1787654;78;21045;-72
2021/01/10 07:37:30;;;;;;;70.72;34.45;;;;;;;-1.50;100.00;99695.66;1818432;78;21109;-72
2021/01/10 07:40:06;;;;;;;63.48;30.02;;;;;;;-1.47;100.00;99705.88;1818404;78;21086;-72
2021/01/10 07:42:39;;;;;;;66.70;31.82;;;;;;;-1.48;100.00;99695.50;1818732;78;21746;-72
2021/01/10 07:47:55;;;;;;;;;;;;;;;-1.47;100.00;99697.13;1710600;83;21025;-72
2021/01/10 07:50:24;;;;;;;71.97;29.72;;;;;;;-1.45;100.00;99697.28;1707681;84;20802;-71
2021/01/10 07:52:54;;;;;;;;;;;;;;;-1.44;100.00;99700.25;1709817;84;21218;-72
2021/01/10 07:55:36;;;;;;;65.32;29.45;;;;;;;-1.38;100.00;99701.37;1850089;77;28352;-72
2021/01/10 07:58:08;;;;;;;;;;;;;;;-1.40;100.00;99709.43;1815285;78;21038;-72
2021/01/10 08:00:50;;;;;;;68.40;33.58;;;;;;;-1.37;100.00;99705.16;1816132;78;21442;-73
2021/01/10 08:03:27;;;;;;;60.98;31.33;;;;;;;-1.35;100.00;99706.28;1712588;82;21093;-74
2021/01/10 08:06:03;;;;;;;62.88;29.98;;;;;;;-1.32;100.00;99708.59;1816927;78;20999;-73
2021/01/10 08:08:43;;;;;;;69.12;33.80;;;;;;;-1.29;100.00;99710.87;1746419;82;21097;-73
2021/01/10 08:11:31;;;;;;;66.00;31.73;;;;;;;-1.26;100.00;99708.39;1817665;78;21572;-72
2021/01/10 08:14:01;;;;;;;61.53;29.37;;;;;;;-1.20;100.00;99709.00;1746350;82;22220;-73
2021/01/10 08:16:31;;;;;;;54.20;24.70;;;;;;;-1.16;100.00;99705.84;1816181;78;21042;-74
2021/01/10 08:19:03;;;;;;;61.42;31.20;;;;;;;-1.20;100.00;99714.27;1817087;78;21047;-72
2021/01/10 08:21:52;;;;;;;63.85;31.10;;;;;;;-1.20;100.00;99712.95;1747141;81;21149;-74
2021/01/10 08:24:21;;;;;;;68.57;32.03;;;;;;;-1.15;100.00;99715.41;1813391;78;21418;-72
2021/01/10 08:27:12;;;;;;;57.55;29.45;;;;;;;-1.09;100.00;99719.15;1747417;81;21376;-72
2021/01/10 08:29:58;;;;;;;56.10;27.58;;;;;;;-1.10;100.00;99716.20;1818296;78;21177;-72
2021/01/10 08:32:27;;;;;;;;;;;;;;;-1.09;100.00;99721.78;1751767;82;21026;-71
2021/01/10 08:35:01;;;;;;;57.75;24.60;;;;;;;-1.06;100.00;99723.25;1779854;80;20206;-72
2021/01/10 08:55:15;;;;;;;62.55;33.13;;;;;;;-0.93;100.00;99716.89;1810123;77;29189;-71
2021/01/10 08:58:56;;;;;;;;;;;;;;;;;;;;;
2021/01/10 09:02:02;;;;;;;61.07;29.33;;;;;;;-0.89;100.00;99719.52;1817800;77;22634;-71
2021/01/10 09:04:52;;;;;;;62.38;28.73;;;;;;;-0.90;100.00;99726.60;1818104;78;21654;-71
2021/01/10 09:07:23;;;;;;;57.10;27.87;;;;;;;-0.90;100.00;99721.33;1682895;84;21031;-71
2021/01/10 09:10:02;;;;;;;60.17;30.57;;;;;;;-0.89;100.00;99715.55;1682764;84;21718;-71
2021/01/10 09:12:39;;;;;;;62.00;30.82;;;;;;;-0.88;100.00;99720.66;1683046;85;21525;-71
2021/01/10 09:15:16;;;;;;;64.40;29.92;;;;;;;-0.84;100.00;99721.13;1682797;85;21661;-72
2021/01/10 09:18:17;;;;;;;49.90;23.47;;;;;;;-0.89;100.00;99716.88;1682060;85;21226;-72
2021/01/10 09:21:13;;;;;;;56.48;29.20;;;;;;;-0.96;100.00;99723.84;1676516;84;21225;-72
2021/01/10 09:23:58;;;;;;;64.70;32.23;;;;;;;-0.96;100.00;99715.42;1682815;85;21713;-72
2021/01/10 09:26:38;;;;;;;64.55;33.45;;;;;;;-0.91;100.00;99714.91;1682550;85;21087;-73
2021/01/10 09:29:22;;;;;;;58.23;27.62;;;;;;;-0.89;100.00;99715.55;1670214;83;21724;-73
2021/01/10 09:31:53;;;;;;;59.23;30.02;;;;;;;-0.90;100.00;99716.56;1715203;82;21856;-73
2021/01/10 09:34:36;;;;;;;;;;;;;;;-0.90;100.00;99717.38;1727791;81;21454;-73
2021/01/10 09:37:32;;;;;;;60.60;30.82;;;;;;;-0.81;100.00;99716.80;1814088;77;24017;-74
2021/01/10 09:40:09;;;;;;;59.63;31.07;;;;;;;-0.86;100.00;99717.84;1758651;80;21255;-72
2021/01/10 09:43:09;;;;;;;60.73;29.65;;;;;;;-0.81;100.00;99723.39;1759923;81;21337;-73
2021/01/10 09:45:39;;;;;;;56.28;30.10;;;;;;;-0.84;100.00;99720.30;1756158;81;21632;-72
2021/01/10 09:48:14;;;;;;;67.47;31.37;;;;;;;-0.85;100.00;99722.12;1761140;81;20903;-72
2021/01/10 09:50:43;;;;;;;56.42;29.92;;;;;;;-0.87;100.00;99723.61;1760353;81;20991;-72
2021/01/10 09:53:11;;;;;;;61.63;30.05;;;;;;;-0.89;100.00;99724.78;1760540;80;21073;-72
2021/01/10 09:55:46;;;;;;;63.75;33.13;;;;;;;-0.94;100.00;99723.17;1749591;80;21287;-71
2021/01/10 09:58:15;;;;;;;56.68;30.80;;;;;;;-0.96;100.00;99725.16;1760076;81;21030;-72
2021/01/10 10:00:59;;;;;;;59.50;33.60;;;;;;;-0.95;100.00;99717.09;1760938;81;21224;-72
2021/01/10 10:03:29;;;;;;;58.28;30.55;;;;;;;-0.96;100.00;99723.33;1760258;81;21125;-71
2021/01/10 10:05:58;;;;;;;57.38;29.35;;;;;;;-0.98;100.00;99722.71;1761030;80;21148;-71
2021/01/10 10:08:27;;;;;;;59.77;30.92;;;;;;;-0.98;100.00;99722.71;1760710;81;21592;-73
2021/01/10 10:10:57;;;;;;;62.78;30.52;;;;;;;-1.00;100.00;99723.89;1760913;80;20974;-71
2021/01/10 10:13:27;;;;;;;64.30;31.62;;;;;;;-1.00;100.00;99716.80;1761123;81;21152;-71
2021/01/10 10:15:55;;;;;;;58.52;30.10;;;;;;;-1.03;100.00;99725.02;1760772;81;21030;-71
2021/01/10 10:18:31;;;;;;;64.77;32.67;;;;;;;-1.05;100.00;99718.29;1760898;81;21199;-71
2021/01/10 10:21:00;;;;;;;71.17;33.92;;;;;;;-1.05;100.00;99713.02;1761077;81;21139;-72
2021/01/10 10:23:29;;;;;;;69.60;35.25;;;;;;;-1.10;100.00;99705.67;1760693;80;20935;-71
2021/01/10 10:25:57;;;;;;;69.17;35.15;;;;;;;-1.10;100.00;99705.67;1761235;81;21147;-71
2021/01/10 10:28:26;;;;;;;80.60;38.23;;;;;;;-1.10;100.00;99706.48;1760930;80;21046;-72
2021/01/10 10:30:54;;;;;;;67.32;34.50;;;;;;;-1.11;100.00;99708.78;1761226;81;21177;-72
2021/01/10 10:33:23;;;;;;;66.20;34.73;;;;;;;-1.12;100.00;99707.15;1761179;81;21662;-72
2021/01/10 10:35:51;;;;;;;56.10;31.00;;;;;;;-1.10;100.00;99706.48;1760744;80;21521;-72
2021/01/10 10:38:19;;;;;;;65.72;30.45;;;;;;;-1.10;100.00;99707.80;1761179;81;21129;-71
2021/01/10 10:40:48;;;;;;;59.18;32.33;;;;;;;-1.07;100.00;99707.12;1761038;81;21023;-72
2021/01/10 10:43:16;;;;;;;52.27;28.67;;;;;;;-1.09;100.00;99705.47;1761228;81;26399;-72
2021/01/10 10:45:46;;;;;;;61.33;30.45;;;;;;;-1.10;100.00;99709.62;1760887;81;20998;-72
2021/01/10 10:48:16;;;;;;;49.18;23.98;;;;;;;-1.13;100.00;99707.31;1760679;81;21026;-72
2021/01/10 10:50:46;;;;;;;46.68;24.85;;;;;;;-1.15;100.00;99709.30;1760152;81;21038;-72
2021/01/10 10:53:14;;;;;;;56.65;26.20;;;;;;;-1.17;100.00;99709.98;1760508;81;21008;-72
2021/01/10 10:55:44;;;;;;;43.55;22.85;;;;;;;-1.18;100.00;99707.83;1760817;81;21125;-72
2021/01/10 10:58:14;;;;;;;57.58;29.45;;;;;;;-1.20;100.00;99704.58;1760598;80;21889;-72
2021/01/10 11:00:44;;;;;;;51.60;26.62;;;;;;;-1.21;100.00;99703.42;1731355;81;21212;-72
2021/01/10 11:03:14;;;;;;;48.50;25.75;;;;;;;-1.23;100.00;99702.27;1760159;80;21098;-72
2021/01/10 11:05:45;;;;;;;53.23;27.87;;;;;;;-1.25;100.00;99696.84;1760260;81;21484;-72
2021/01/10 11:08:15;;;;;;;56.53;25.95;;;;;;;-1.23;100.00;99698.81;1760291;80;21539;-72
2021/01/10 11:14:52;;;;;;;56.53;27.13;;;;;;;-1.21;100.00;99699.47;1759872;80;21193;-72
2021/01/10 11:17:21;;;;;;;56.98;29.42;;;;;;;-1.21;100.00;99704.23;1760377;81;20947;-73
2021/01/10 11:19:51;;;;;;;57.15;29.30;;;;;;;-1.19;100.00;99706.20;1760100;81;21034;-72
2021/01/10 11:22:19;;;;;;;46.63;25.68;;;;;;;-1.18;100.00;99704.37;1760498;81;21081;-72
2021/01/10 11:24:48;;;;;;;52.40;26.57;;;;;;;-1.17;100.00;99706.04;1760641;80;21384;-73
2021/01/10 11:27:16;;;;;;;48.55;26.60;;;;;;;-1.19;100.00;99705.39;1760560;81;21207;-72
2021/01/10 11:29:45;;;;;;;50.80;27.87;;;;;;;-1.20;100.00;99709.84;1759975;80;21128;-72
2021/01/10 11:32:13;;;;;;;56.05;29.37;;;;;;;-1.20;100.00;99711.16;1760255;81;21735;-72
2021/01/10 11:34:45;;;;;;;49.05;24.67;;;;;;;-1.20;100.00;99707.68;1759844;81;21208;-72
2021/01/10 11:37:13;;;;;;;52.43;24.57;;;;;;;-1.23;100.00;99708.84;1751033;80;21645;-72
2021/01/10 11:39:42;;;;;;;55.10;29.12;;;;;;;-1.26;100.00;99704.44;1745455;82;21285;-72
2021/01/10 11:42:14;;;;;;;;;;;;;;;-1.30;100.00;99711.37;1748087;82;21526;-73
2021/01/10 11:44:40;;;;;;;51.10;25.85;;;;;;;-1.37;100.00;99718.80;1721020;82;20181;-73
2021/01/10 11:47:33;;;;;;;;;;;;;;;;;;;;;
2021/01/10 11:50:06;;;;;;;49.70;24.37;;;;;;;-1.43;100.00;99724.27;1744667;82;21206;-73
2021/01/10 11:53:12;;;;;;;45.17;24.35;;;;;;;-1.45;100.00;99723.61;1646833;85;21272;-73
2021/01/10 11:56:47;;;;;;;44.85;24.20;;;;;;;-1.40;100.00;99717.83;1837222;77;29059;-72
2021/01/10 11:59:47;;;;;;;46.68;25.88;;;;;;;-1.42;100.00;99728.55;1780115;79;21575;-73
2021/01/10 12:02:18;;;;;;;44.15;23.52;;;;;;;-1.41;100.00;99728.05;1749541;81;21195;-73
2021/01/10 12:04:49;;;;;;;52.08;25.37;;;;;;;-1.41;100.00;99732.81;1779844;80;20995;-72
2021/01/10 12:07:29;;;;;;;49.20;24.05;;;;;;;-1.40;100.00;99732.31;1746896;82;21043;-74
2021/01/10 12:10:01;;;;;;;51.42;27.90;;;;;;;-1.40;100.00;99735.76;1755375;80;20991;-73
2021/01/10 12:12:29;;;;;;;48.08;24.37;;;;;;;-1.39;100.00;99742.69;1746990;82;21625;-72
2021/01/10 12:15:00;;;;;;;;;;;;;;;-1.36;100.00;99743.65;1787816;80;21192;-71
2021/01/10 12:17:37;;;;;;;53.38;26.70;;;;;;;-1.36;100.00;99743.65;1785156;80;20418;-72
2021/01/10 12:20:50;;;;;;;47.67;25.37;;;;;;;-1.36;100.00;99738.89;1780579;80;21019;-74
2021/01/10 12:23:47;;;;;;;50.10;25.70;;;;;;;-1.35;100.00;99748.41;1656372;84;21131;-73
2021/01/10 12:26:25;;;;;;;48.75;24.85;;;;;;;-1.33;100.00;99753.02;1719802;83;21153;-76